sensor_id;sensor_type;location;lat;lon;timestamp;P1;durP1;ratioP1;P2;durP2;ratioP2
22652;SDS011;11493;43.344;26.226;2023-08-31T00:01:20;22.60;;;18.42;;
22652;SDS011;11493;43.344;26.226;2023-08-31T00:03:47;17.88;;;16.05;;
22652;SDS011;11493;43.344;26.226;2023-08-31T00:06:14;22.67;;;17.08;;
22652;SDS011;11493;43.344;26.226;2023-08-31T00:08:41;24.02;;;16.92;;
22652;SDS011;11493;43.344;26.226;2023-08-31T00:11:08;23.77;;;17.27;;
22652;SDS011;11493;43.344;26.226;2023-08-31T00:13:35;22.95;;;16.30;;
22652;SDS011;11493;43.344;26.226;2023-08-31T00:16:02;23.70;;;18.15;;
22652;SDS011;11493;43.344;26.226;2023-08-31T00:18:29;20.95;;;16.75;;
22652;SDS011;11493;43.344;26.226;2023-08-31T00:20:56;30.33;;;17.50;;
22652;SDS011;11493;43.344;26.226;2023-08-31T00:23:23;19.35;;;17.42;;
22652;SDS011;11493;43.344;26.226;2023-08-31T00:25:50;26.85;;;18.13;;
22652;SDS011;11493;43.344;26.226;2023-08-31T00:28:20;22.67;;;18.05;;
22652;SDS011;11493;43.344;26.226;2023-08-31T00:30:48;20.67;;;18.17;;
22652;SDS011;11493;43.344;26.226;2023-08-31T00:33:16;18.02;;;16.25;;
22652;SDS011;11493;43.344;26.226;2023-08-31T00:35:44;20.15;;;16.65;;
22652;SDS011;11493;43.344;26.226;2023-08-31T00:38:14;18.33;;;16.38;;
22652;SDS011;11493;43.344;26.226;2023-08-31T00:40:42;20.80;;;17.45;;
22652;SDS011;11493;43.344;26.226;2023-08-31T00:43:13;20.90;;;18.02;;
22652;SDS011;11493;43.344;26.226;2023-08-31T00:45:44;28.88;;;21.50;;
22652;SDS011;11493;43.344;26.226;2023-08-31T00:48:17;24.65;;;22.15;;
22652;SDS011;11493;43.344;26.226;2023-08-31T00:50:47;26.63;;;23.98;;
22652;SDS011;11493;43.344;26.226;2023-08-31T00:53:15;26.45;;;23.73;;
22652;SDS011;11493;43.344;26.226;2023-08-31T00:55:44;27.65;;;20.58;;
22652;SDS011;11493;43.344;26.226;2023-08-31T00:58:11;23.00;;;19.83;;
22652;SDS011;11493;43.344;26.226;2023-08-31T01:00:53;22.70;;;19.33;;
22652;SDS011;11493;43.344;26.226;2023-08-31T01:10:49;26.55;;;18.85;;
22652;SDS011;11493;43.344;26.226;2023-08-31T01:13:07;20.25;;;18.25;;
22652;SDS011;11493;43.344;26.226;2023-08-31T01:15:50;27.55;;;19.02;;
22652;SDS011;11493;43.344;26.226;2023-08-31T01:18:21;19.17;;;17.25;;
22652;SDS011;11493;43.344;26.226;2023-08-31T01:20:55;24.42;;;18.63;;
22652;SDS011;11493;43.344;26.226;2023-08-31T01:23:49;19.25;;;17.15;;
22652;SDS011;11493;43.344;26.226;2023-08-31T01:26:18;25.15;;;18.55;;
22652;SDS011;11493;43.344;26.226;2023-08-31T01:28:46;23.80;;;18.38;;
22652;SDS011;11493;43.344;26.226;2023-08-31T01:31:14;24.38;;;18.35;;
22652;SDS011;11493;43.344;26.226;2023-08-31T01:37:00;25.58;;;18.38;;
22652;SDS011;11493;43.344;26.226;2023-08-31T01:39:42;22.27;;;19.75;;
22652;SDS011;11493;43.344;26.226;2023-08-31T01:42:21;20.52;;;17.85;;
22652;SDS011;11493;43.344;26.226;2023-08-31T01:44:52;23.87;;;17.60;;
22652;SDS011;11493;43.344;26.226;2023-08-31T01:47:22;19.15;;;17.05;;
22652;SDS011;11493;43.344;26.226;2023-08-31T01:49:50;20.45;;;17.75;;
22652;SDS011;11493;43.344;26.226;2023-08-31T01:52:17;24.08;;;18.30;;
22652;SDS011;11493;43.344;26.226;2023-08-31T01:54:44;30.73;;;20.10;;
22652;SDS011;11493;43.344;26.226;2023-08-31T01:57:11;30.42;;;25.80;;
22652;SDS011;11493;43.344;26.226;2023-08-31T02:00:02;27.95;;;24.42;;
22652;SDS011;11493;43.344;26.226;2023-08-31T02:02:39;33.85;;;25.45;;
22652;SDS011;11493;43.344;26.226;2023-08-31T02:05:07;32.30;;;26.92;;
22652;SDS011;11493;43.344;26.226;2023-08-31T02:07:35;28.30;;;25.23;;
22652;SDS011;11493;43.344;26.226;2023-08-31T02:10:03;33.03;;;26.38;;
22652;SDS011;11493;43.344;26.226;2023-08-31T02:12:33;36.65;;;26.48;;
22652;SDS011;11493;43.344;26.226;2023-08-31T02:15:05;33.33;;;24.58;;
22652;SDS011;11493;43.344;26.226;2023-08-31T02:17:33;29.53;;;22.93;;
22652;SDS011;11493;43.344;26.226;2023-08-31T02:20:01;28.35;;;22.17;;
22652;SDS011;11493;43.344;26.226;2023-08-31T02:22:33;24.50;;;22.10;;
22652;SDS011;11493;43.344;26.226;2023-08-31T02:25:01;24.60;;;20.15;;
22652;SDS011;11493;43.344;26.226;2023-08-31T02:27:29;23.42;;;19.13;;
22652;SDS011;11493;43.344;26.226;2023-08-31T02:29:56;23.00;;;18.27;;
22652;SDS011;11493;43.344;26.226;2023-08-31T02:32:24;23.92;;;18.92;;
22652;SDS011;11493;43.344;26.226;2023-08-31T02:34:51;19.70;;;17.10;;
22652;SDS011;11493;43.344;26.226;2023-08-31T02:37:18;24.73;;;18.23;;
22652;SDS011;11493;43.344;26.226;2023-08-31T02:39:45;24.92;;;20.15;;
22652;SDS011;11493;43.344;26.226;2023-08-31T02:42:13;20.48;;;17.92;;
22652;SDS011;11493;43.344;26.226;2023-08-31T02:44:40;21.65;;;18.05;;
22652;SDS011;11493;43.344;26.226;2023-08-31T02:47:07;28.40;;;18.30;;
22652;SDS011;11493;43.344;26.226;2023-08-31T02:49:35;22.05;;;17.67;;
22652;SDS011;11493;43.344;26.226;2023-08-31T02:52:02;31.02;;;18.50;;
22652;SDS011;11493;43.344;26.226;2023-08-31T02:54:29;20.50;;;17.13;;
22652;SDS011;11493;43.344;26.226;2023-08-31T02:56:56;18.65;;;16.63;;
22652;SDS011;11493;43.344;26.226;2023-08-31T02:59:24;20.52;;;16.88;;
22652;SDS011;11493;43.344;26.226;2023-08-31T03:01:51;21.88;;;17.02;;
22652;SDS011;11493;43.344;26.226;2023-08-31T03:04:19;24.70;;;17.40;;
22652;SDS011;11493;43.344;26.226;2023-08-31T03:06:46;22.40;;;17.65;;
22652;SDS011;11493;43.344;26.226;2023-08-31T03:09:13;23.80;;;18.90;;
22652;SDS011;11493;43.344;26.226;2023-08-31T03:11:40;31.65;;;17.55;;
22652;SDS011;11493;43.344;26.226;2023-08-31T03:14:07;25.55;;;18.30;;
22652;SDS011;11493;43.344;26.226;2023-08-31T03:16:36;22.40;;;17.60;;
22652;SDS011;11493;43.344;26.226;2023-08-31T03:19:03;22.67;;;18.17;;
22652;SDS011;11493;43.344;26.226;2023-08-31T03:21:31;27.40;;;19.48;;
22652;SDS011;11493;43.344;26.226;2023-08-31T03:23:59;21.42;;;18.73;;
22652;SDS011;11493;43.344;26.226;2023-08-31T03:26:26;25.08;;;18.85;;
22652;SDS011;11493;43.344;26.226;2023-08-31T03:28:53;28.00;;;19.25;;
22652;SDS011;11493;43.344;26.226;2023-08-31T03:31:20;23.05;;;20.40;;
22652;SDS011;11493;43.344;26.226;2023-08-31T03:33:47;34.05;;;20.33;;
22652;SDS011;11493;43.344;26.226;2023-08-31T03:36:14;24.35;;;21.23;;
22652;SDS011;11493;43.344;26.226;2023-08-31T03:38:43;26.00;;;19.95;;
22652;SDS011;11493;43.344;26.226;2023-08-31T03:41:10;22.48;;;20.08;;
22652;SDS011;11493;43.344;26.226;2023-08-31T03:43:38;25.40;;;21.20;;
22652;SDS011;11493;43.344;26.226;2023-08-31T03:46:05;29.02;;;22.58;;
22652;SDS011;11493;43.344;26.226;2023-08-31T03:48:32;30.17;;;23.50;;
22652;SDS011;11493;43.344;26.226;2023-08-31T03:51:00;28.42;;;21.77;;
22652;SDS011;11493;43.344;26.226;2023-08-31T03:53:27;33.20;;;23.02;;
22652;SDS011;11493;43.344;26.226;2023-08-31T03:55:57;33.40;;;24.42;;
22652;SDS011;11493;43.344;26.226;2023-08-31T03:58:29;31.85;;;23.13;;
22652;SDS011;11493;43.344;26.226;2023-08-31T04:00:56;31.67;;;23.75;;
22652;SDS011;11493;43.344;26.226;2023-08-31T04:03:23;36.15;;;25.20;;
22652;SDS011;11493;43.344;26.226;2023-08-31T04:05:54;28.67;;;23.75;;
22652;SDS011;11493;43.344;26.226;2023-08-31T04:08:22;33.42;;;25.20;;
22652;SDS011;11493;43.344;26.226;2023-08-31T04:10:49;39.00;;;23.67;;
22652;SDS011;11493;43.344;26.226;2023-08-31T04:13:16;38.00;;;26.90;;
22652;SDS011;11493;43.344;26.226;2023-08-31T04:15:43;31.58;;;24.70;;
22652;SDS011;11493;43.344;26.226;2023-08-31T04:18:10;30.25;;;24.10;;
22652;SDS011;11493;43.344;26.226;2023-08-31T04:20:37;42.58;;;27.05;;
22652;SDS011;11493;43.344;26.226;2023-08-31T04:23:05;32.25;;;24.98;;
22652;SDS011;11493;43.344;26.226;2023-08-31T04:25:33;36.72;;;25.55;;
22652;SDS011;11493;43.344;26.226;2023-08-31T04:28:00;45.70;;;25.48;;
22652;SDS011;11493;43.344;26.226;2023-08-31T04:30:27;29.55;;;25.45;;
22652;SDS011;11493;43.344;26.226;2023-08-31T04:32:54;32.40;;;24.27;;
22652;SDS011;11493;43.344;26.226;2023-08-31T04:35:21;36.33;;;32.35;;
22652;SDS011;11493;43.344;26.226;2023-08-31T04:37:48;33.88;;;25.73;;
22652;SDS011;11493;43.344;26.226;2023-08-31T04:40:15;28.40;;;25.48;;
22652;SDS011;11493;43.344;26.226;2023-08-31T04:42:43;26.67;;;21.17;;
22652;SDS011;11493;43.344;26.226;2023-08-31T04:45:10;22.80;;;20.55;;
22652;SDS011;11493;43.344;26.226;2023-08-31T04:47:38;28.67;;;23.10;;
22652;SDS011;11493;43.344;26.226;2023-08-31T04:50:06;28.83;;;25.98;;
22652;SDS011;11493;43.344;26.226;2023-08-31T04:52:34;37.72;;;29.65;;
22652;SDS011;11493;43.344;26.226;2023-08-31T04:55:01;37.60;;;33.63;;
22652;SDS011;11493;43.344;26.226;2023-08-31T04:57:30;44.22;;;36.63;;
22652;SDS011;11493;43.344;26.226;2023-08-31T04:59:57;39.25;;;35.25;;
22652;SDS011;11493;43.344;26.226;2023-08-31T05:02:24;50.83;;;45.63;;
22652;SDS011;11493;43.344;26.226;2023-08-31T05:04:51;49.53;;;44.50;;
22652;SDS011;11493;43.344;26.226;2023-08-31T05:07:18;48.17;;;40.97;;
22652;SDS011;11493;43.344;26.226;2023-08-31T05:09:45;44.35;;;39.53;;
22652;SDS011;11493;43.344;26.226;2023-08-31T05:12:12;46.55;;;41.88;;
22652;SDS011;11493;43.344;26.226;2023-08-31T05:14:39;51.13;;;45.83;;
22652;SDS011;11493;43.344;26.226;2023-08-31T05:17:07;47.13;;;42.38;;
22652;SDS011;11493;43.344;26.226;2023-08-31T05:19:34;54.85;;;41.22;;
22652;SDS011;11493;43.344;26.226;2023-08-31T05:22:01;46.40;;;39.95;;
22652;SDS011;11493;43.344;26.226;2023-08-31T05:24:28;43.63;;;38.95;;
22652;SDS011;11493;43.344;26.226;2023-08-31T05:26:55;37.38;;;33.08;;
22652;SDS011;11493;43.344;26.226;2023-08-31T05:29:22;40.30;;;35.78;;
22652;SDS011;11493;43.344;26.226;2023-08-31T05:31:51;29.98;;;26.90;;
22652;SDS011;11493;43.344;26.226;2023-08-31T05:34:20;28.13;;;25.23;;
22652;SDS011;11493;43.344;26.226;2023-08-31T05:36:48;26.58;;;23.63;;
22652;SDS011;11493;43.344;26.226;2023-08-31T05:39:15;26.55;;;22.92;;
22652;SDS011;11493;43.344;26.226;2023-08-31T05:41:45;26.15;;;22.42;;
22652;SDS011;11493;43.344;26.226;2023-08-31T05:44:12;27.60;;;22.60;;
22652;SDS011;11493;43.344;26.226;2023-08-31T05:46:39;27.98;;;24.48;;
22652;SDS011;11493;43.344;26.226;2023-08-31T05:49:07;26.42;;;23.70;;
22652;SDS011;11493;43.344;26.226;2023-08-31T05:51:34;34.65;;;24.27;;
22652;SDS011;11493;43.344;26.226;2023-08-31T05:54:02;26.88;;;22.83;;
22652;SDS011;11493;43.344;26.226;2023-08-31T05:56:30;25.10;;;21.50;;
22652;SDS011;11493;43.344;26.226;2023-08-31T05:59:00;26.73;;;21.85;;
22652;SDS011;11493;43.344;26.226;2023-08-31T06:01:28;26.05;;;23.33;;
22652;SDS011;11493;43.344;26.226;2023-08-31T06:03:55;24.48;;;21.88;;
22652;SDS011;11493;43.344;26.226;2023-08-31T06:06:22;29.48;;;21.35;;
22652;SDS011;11493;43.344;26.226;2023-08-31T06:08:49;25.88;;;20.30;;
22652;SDS011;11493;43.344;26.226;2023-08-31T06:11:16;24.38;;;21.73;;
22652;SDS011;11493;43.344;26.226;2023-08-31T06:13:43;23.88;;;21.35;;
22652;SDS011;11493;43.344;26.226;2023-08-31T06:16:10;22.17;;;19.63;;
22652;SDS011;11493;43.344;26.226;2023-08-31T06:18:38;23.63;;;20.38;;
22652;SDS011;11493;43.344;26.226;2023-08-31T06:21:05;25.65;;;20.60;;
22652;SDS011;11493;43.344;26.226;2023-08-31T06:23:32;26.52;;;19.10;;
22652;SDS011;11493;43.344;26.226;2023-08-31T06:25:59;21.83;;;18.17;;
22652;SDS011;11493;43.344;26.226;2023-08-31T06:28:26;20.88;;;18.73;;
22652;SDS011;11493;43.344;26.226;2023-08-31T06:30:53;27.17;;;17.83;;
22652;SDS011;11493;43.344;26.226;2023-08-31T06:33:20;26.75;;;18.10;;
22652;SDS011;11493;43.344;26.226;2023-08-31T06:35:48;20.15;;;15.90;;
22652;SDS011;11493;43.344;26.226;2023-08-31T06:38:18;19.80;;;13.82;;
22652;SDS011;11493;43.344;26.226;2023-08-31T06:40:49;12.80;;;11.43;;
22652;SDS011;11493;43.344;26.226;2023-08-31T06:43:16;11.43;;;10.40;;
22652;SDS011;11493;43.344;26.226;2023-08-31T06:45:43;17.00;;;10.82;;
22652;SDS011;11493;43.344;26.226;2023-08-31T06:48:10;20.63;;;11.32;;
22652;SDS011;11493;43.344;26.226;2023-08-31T06:50:37;13.15;;;10.80;;
22652;SDS011;11493;43.344;26.226;2023-08-31T06:53:04;13.85;;;10.77;;
22652;SDS011;11493;43.344;26.226;2023-08-31T06:55:31;11.77;;;10.68;;
22652;SDS011;11493;43.344;26.226;2023-08-31T06:57:59;12.15;;;11.15;;
22652;SDS011;11493;43.344;26.226;2023-08-31T07:00:26;14.23;;;11.27;;
22652;SDS011;11493;43.344;26.226;2023-08-31T07:02:53;11.95;;;10.88;;
22652;SDS011;11493;43.344;26.226;2023-08-31T07:05:25;11.48;;;10.27;;
22652;SDS011;11493;43.344;26.226;2023-08-31T07:07:53;16.17;;;11.48;;
22652;SDS011;11493;43.344;26.226;2023-08-31T07:10:23;11.75;;;10.57;;
22652;SDS011;11493;43.344;26.226;2023-08-31T07:12:51;13.68;;;10.35;;
22652;SDS011;11493;43.344;26.226;2023-08-31T07:15:18;15.52;;;11.13;;
22652;SDS011;11493;43.344;26.226;2023-08-31T07:17:45;13.65;;;10.73;;
22652;SDS011;11493;43.344;26.226;2023-08-31T07:20:12;13.70;;;10.70;;
22652;SDS011;11493;43.344;26.226;2023-08-31T07:22:39;14.07;;;11.45;;
22652;SDS011;11493;43.344;26.226;2023-08-31T07:25:07;11.25;;;9.95;;
22652;SDS011;11493;43.344;26.226;2023-08-31T07:27:34;18.15;;;10.15;;
22652;SDS011;11493;43.344;26.226;2023-08-31T07:30:02;11.20;;;9.90;;
22652;SDS011;11493;43.344;26.226;2023-08-31T07:32:30;15.75;;;9.63;;
22652;SDS011;11493;43.344;26.226;2023-08-31T07:34:58;13.20;;;9.50;;
22652;SDS011;11493;43.344;26.226;2023-08-31T07:37:26;10.38;;;8.43;;
22652;SDS011;11493;43.344;26.226;2023-08-31T07:39:53;11.52;;;9.35;;
22652;SDS011;11493;43.344;26.226;2023-08-31T07:42:21;14.93;;;9.55;;
22652;SDS011;11493;43.344;26.226;2023-08-31T07:44:48;10.35;;;9.48;;
22652;SDS011;11493;43.344;26.226;2023-08-31T07:47:15;17.73;;;9.57;;
22652;SDS011;11493;43.344;26.226;2023-08-31T07:49:41;15.93;;;10.20;;
22652;SDS011;11493;43.344;26.226;2023-08-31T07:52:08;11.43;;;9.18;;
22652;SDS011;11493;43.344;26.226;2023-08-31T07:54:36;10.48;;;8.35;;
22652;SDS011;11493;43.344;26.226;2023-08-31T07:57:03;11.73;;;9.02;;
22652;SDS011;11493;43.344;26.226;2023-08-31T07:59:30;10.10;;;9.18;;
22652;SDS011;11493;43.344;26.226;2023-08-31T08:01:57;10.10;;;9.18;;
22652;SDS011;11493;43.344;26.226;2023-08-31T08:04:24;24.33;;;8.98;;
22652;SDS011;11493;43.344;26.226;2023-08-31T08:06:52;13.48;;;8.38;;
22652;SDS011;11493;43.344;26.226;2023-08-31T08:09:20;8.27;;;7.53;;
22652;SDS011;11493;43.344;26.226;2023-08-31T08:11:48;8.10;;;6.72;;
22652;SDS011;11493;43.344;26.226;2023-08-31T08:14:15;7.40;;;6.70;;
22652;SDS011;11493;43.344;26.226;2023-08-31T08:16:42;10.48;;;7.00;;
22652;SDS011;11493;43.344;26.226;2023-08-31T08:19:09;9.43;;;7.45;;
22652;SDS011;11493;43.344;26.226;2023-08-31T08:21:36;10.40;;;7.50;;
22652;SDS011;11493;43.344;26.226;2023-08-31T08:24:04;9.07;;;6.60;;
22652;SDS011;11493;43.344;26.226;2023-08-31T08:26:31;9.63;;;6.55;;
22652;SDS011;11493;43.344;26.226;2023-08-31T08:28:58;10.25;;;7.40;;
22652;SDS011;11493;43.344;26.226;2023-08-31T08:31:25;7.25;;;6.55;;
22652;SDS011;11493;43.344;26.226;2023-08-31T08:33:52;7.45;;;6.38;;
22652;SDS011;11493;43.344;26.226;2023-08-31T08:36:19;8.20;;;6.75;;
22652;SDS011;11493;43.344;26.226;2023-08-31T08:38:46;9.60;;;7.13;;
22652;SDS011;11493;43.344;26.226;2023-08-31T08:41:14;8.05;;;6.65;;
22652;SDS011;11493;43.344;26.226;2023-08-31T08:43:42;9.00;;;6.93;;
22652;SDS011;11493;43.344;26.226;2023-08-31T08:46:10;9.65;;;7.10;;
22652;SDS011;11493;43.344;26.226;2023-08-31T08:48:38;8.27;;;6.35;;
22652;SDS011;11493;43.344;26.226;2023-08-31T08:51:06;7.40;;;6.80;;
22652;SDS011;11493;43.344;26.226;2023-08-31T08:53:34;10.27;;;7.18;;
22652;SDS011;11493;43.344;26.226;2023-08-31T08:56:01;11.00;;;7.13;;
22652;SDS011;11493;43.344;26.226;2023-08-31T08:58:28;9.30;;;7.07;;
22652;SDS011;11493;43.344;26.226;2023-08-31T09:00:55;9.93;;;6.38;;
22652;SDS011;11493;43.344;26.226;2023-08-31T09:03:23;8.93;;;6.57;;
22652;SDS011;11493;43.344;26.226;2023-08-31T09:05:51;9.55;;;7.25;;
22652;SDS011;11493;43.344;26.226;2023-08-31T09:08:25;8.82;;;6.32;;
22652;SDS011;11493;43.344;26.226;2023-08-31T09:10:55;14.57;;;7.88;;
22652;SDS011;11493;43.344;26.226;2023-08-31T09:13:27;9.15;;;6.55;;
22652;SDS011;11493;43.344;26.226;2023-08-31T09:15:56;6.97;;;6.30;;
22652;SDS011;11493;43.344;26.226;2023-08-31T09:20:51;9.52;;;7.30;;
22652;SDS011;11493;43.344;26.226;2023-08-31T09:23:19;7.97;;;6.90;;
22652;SDS011;11493;43.344;26.226;2023-08-31T09:25:50;7.32;;;5.47;;
22652;SDS011;11493;43.344;26.226;2023-08-31T09:28:20;7.93;;;5.30;;
22652;SDS011;11493;43.344;26.226;2023-08-31T09:30:49;9.75;;;5.30;;
22652;SDS011;11493;43.344;26.226;2023-08-31T09:33:19;4.80;;;4.30;;
22652;SDS011;11493;43.344;26.226;2023-08-31T09:35:51;6.03;;;4.72;;
22652;SDS011;11493;43.344;26.226;2023-08-31T09:38:19;5.55;;;4.22;;
22652;SDS011;11493;43.344;26.226;2023-08-31T09:40:46;4.75;;;3.97;;
22652;SDS011;11493;43.344;26.226;2023-08-31T09:43:20;7.63;;;3.83;;
22652;SDS011;11493;43.344;26.226;2023-08-31T09:45:49;4.13;;;3.60;;
22652;SDS011;11493;43.344;26.226;2023-08-31T09:48:19;4.43;;;3.40;;
22652;SDS011;11493;43.344;26.226;2023-08-31T09:50:46;9.88;;;3.80;;
22652;SDS011;11493;43.344;26.226;2023-08-31T09:53:15;5.10;;;3.40;;
22652;SDS011;11493;43.344;26.226;2023-08-31T09:55:43;4.03;;;3.53;;
22652;SDS011;11493;43.344;26.226;2023-08-31T09:58:13;7.28;;;3.63;;
22652;SDS011;11493;43.344;26.226;2023-08-31T10:00:44;10.50;;;3.85;;
22652;SDS011;11493;43.344;26.226;2023-08-31T10:03:12;6.00;;;3.55;;
22652;SDS011;11493;43.344;26.226;2023-08-31T10:05:48;8.75;;;3.53;;
22652;SDS011;11493;43.344;26.226;2023-08-31T10:08:17;5.63;;;3.67;;
22652;SDS011;11493;43.344;26.226;2023-08-31T10:10:45;8.18;;;3.67;;
22652;SDS011;11493;43.344;26.226;2023-08-31T10:13:13;6.70;;;3.45;;
22652;SDS011;11493;43.344;26.226;2023-08-31T10:15:43;4.13;;;3.35;;
22652;SDS011;11493;43.344;26.226;2023-08-31T10:18:10;5.55;;;3.05;;
22652;SDS011;11493;43.344;26.226;2023-08-31T10:20:39;8.85;;;3.50;;
22652;SDS011;11493;43.344;26.226;2023-08-31T10:23:09;7.30;;;3.58;;
22652;SDS011;11493;43.344;26.226;2023-08-31T10:26:20;4.57;;;3.22;;
22652;SDS011;11493;43.344;26.226;2023-08-31T10:28:30;5.60;;;3.42;;
22652;SDS011;11493;43.344;26.226;2023-08-31T10:31:15;4.78;;;3.22;;
22652;SDS011;11493;43.344;26.226;2023-08-31T10:33:47;9.00;;;3.70;;
22652;SDS011;11493;43.344;26.226;2023-08-31T10:39:23;3.53;;;2.78;;
22652;SDS011;11493;43.344;26.226;2023-08-31T10:41:55;5.18;;;3.05;;
22652;SDS011;11493;43.344;26.226;2023-08-31T10:46:55;5.72;;;3.30;;
22652;SDS011;11493;43.344;26.226;2023-08-31T10:49:25;6.38;;;3.97;;
22652;SDS011;11493;43.344;26.226;2023-08-31T10:51:56;7.70;;;3.70;;
22652;SDS011;11493;43.344;26.226;2023-08-31T10:54:25;4.28;;;3.53;;
22652;SDS011;11493;43.344;26.226;2023-08-31T11:07:35;4.88;;;3.90;;
22652;SDS011;11493;43.344;26.226;2023-08-31T11:12:48;8.48;;;3.97;;
22652;SDS011;11493;43.344;26.226;2023-08-31T11:15:18;6.13;;;4.30;;
22652;SDS011;11493;43.344;26.226;2023-08-31T11:17:46;5.95;;;3.72;;
22652;SDS011;11493;43.344;26.226;2023-08-31T11:20:15;6.90;;;4.10;;
22652;SDS011;11493;43.344;26.226;2023-08-31T11:22:45;11.77;;;4.72;;
22652;SDS011;11493;43.344;26.226;2023-08-31T11:25:22;7.20;;;4.32;;
22652;SDS011;11493;43.344;26.226;2023-08-31T11:27:53;5.28;;;3.63;;
22652;SDS011;11493;43.344;26.226;2023-08-31T11:30:28;7.68;;;3.92;;
22652;SDS011;11493;43.344;26.226;2023-08-31T11:33:03;6.35;;;3.80;;
22652;SDS011;11493;43.344;26.226;2023-08-31T11:35:36;6.22;;;3.83;;
22652;SDS011;11493;43.344;26.226;2023-08-31T11:38:06;8.05;;;3.15;;
22652;SDS011;11493;43.344;26.226;2023-08-31T11:40:35;4.18;;;3.33;;
22652;SDS011;11493;43.344;26.226;2023-08-31T11:43:04;6.07;;;3.55;;
22652;SDS011;11493;43.344;26.226;2023-08-31T11:45:33;7.88;;;4.05;;
22652;SDS011;11493;43.344;26.226;2023-08-31T11:48:01;5.75;;;3.50;;
22652;SDS011;11493;43.344;26.226;2023-08-31T11:50:29;5.95;;;4.00;;
22652;SDS011;11493;43.344;26.226;2023-08-31T11:52:57;8.13;;;3.22;;
22652;SDS011;11493;43.344;26.226;2023-08-31T11:55:25;5.93;;;3.17;;
22652;SDS011;11493;43.344;26.226;2023-08-31T11:57:52;4.05;;;3.05;;
22652;SDS011;11493;43.344;26.226;2023-08-31T12:00:21;3.90;;;2.85;;
22652;SDS011;11493;43.344;26.226;2023-08-31T12:02:56;5.30;;;3.25;;
22652;SDS011;11493;43.344;26.226;2023-08-31T12:05:27;4.43;;;3.15;;
22652;SDS011;11493;43.344;26.226;2023-08-31T12:07:55;6.22;;;3.40;;
22652;SDS011;11493;43.344;26.226;2023-08-31T12:10:24;5.15;;;3.60;;
22652;SDS011;11493;43.344;26.226;2023-08-31T12:12:51;4.75;;;2.95;;
22652;SDS011;11493;43.344;26.226;2023-08-31T12:15:19;7.80;;;3.60;;
22652;SDS011;11493;43.344;26.226;2023-08-31T12:17:49;8.55;;;3.55;;
22652;SDS011;11493;43.344;26.226;2023-08-31T12:20:25;6.72;;;3.38;;
22652;SDS011;11493;43.344;26.226;2023-08-31T12:22:58;4.47;;;3.13;;
22652;SDS011;11493;43.344;26.226;2023-08-31T12:25:34;9.23;;;3.22;;
22652;SDS011;11493;43.344;26.226;2023-08-31T12:28:01;9.77;;;3.50;;
22652;SDS011;11493;43.344;26.226;2023-08-31T12:30:31;6.65;;;2.90;;
22652;SDS011;11493;43.344;26.226;2023-08-31T12:33:01;4.82;;;3.08;;
22652;SDS011;11493;43.344;26.226;2023-08-31T12:35:28;7.38;;;3.40;;
22652;SDS011;11493;43.344;26.226;2023-08-31T12:38:43;5.53;;;3.20;;
22652;SDS011;11493;43.344;26.226;2023-08-31T12:41:10;4.93;;;3.60;;
22652;SDS011;11493;43.344;26.226;2023-08-31T12:43:37;8.65;;;4.18;;
22652;SDS011;11493;43.344;26.226;2023-08-31T12:46:04;5.32;;;4.00;;
22652;SDS011;11493;43.344;26.226;2023-08-31T12:48:36;7.18;;;3.70;;
22652;SDS011;11493;43.344;26.226;2023-08-31T12:51:03;5.80;;;3.85;;
22652;SDS011;11493;43.344;26.226;2023-08-31T12:53:30;8.77;;;3.53;;
22652;SDS011;11493;43.344;26.226;2023-08-31T12:55:57;6.65;;;3.30;;
22652;SDS011;11493;43.344;26.226;2023-08-31T12:58:24;6.65;;;3.20;;
22652;SDS011;11493;43.344;26.226;2023-08-31T13:00:51;4.97;;;2.85;;
22652;SDS011;11493;43.344;26.226;2023-08-31T13:03:20;8.55;;;3.67;;
22652;SDS011;11493;43.344;26.226;2023-08-31T13:05:47;5.47;;;2.42;;
22652;SDS011;11493;43.344;26.226;2023-08-31T13:08:15;5.18;;;2.70;;
22652;SDS011;11493;43.344;26.226;2023-08-31T13:10:43;3.67;;;3.10;;
22652;SDS011;11493;43.344;26.226;2023-08-31T13:13:10;5.43;;;2.70;;
22652;SDS011;11493;43.344;26.226;2023-08-31T13:15:37;6.32;;;2.60;;
22652;SDS011;11493;43.344;26.226;2023-08-31T13:18:04;5.07;;;2.60;;
22652;SDS011;11493;43.344;26.226;2023-08-31T13:20:32;6.97;;;3.17;;
22652;SDS011;11493;43.344;26.226;2023-08-31T13:22:59;9.70;;;3.05;;
22652;SDS011;11493;43.344;26.226;2023-08-31T13:25:26;11.38;;;3.40;;
22652;SDS011;11493;43.344;26.226;2023-08-31T13:27:53;5.72;;;2.70;;
22652;SDS011;11493;43.344;26.226;2023-08-31T13:30:20;5.90;;;2.97;;
22652;SDS011;11493;43.344;26.226;2023-08-31T13:32:48;8.18;;;2.90;;
22652;SDS011;11493;43.344;26.226;2023-08-31T13:35:15;5.28;;;2.80;;
22652;SDS011;11493;43.344;26.226;2023-08-31T13:37:42;7.88;;;2.75;;
22652;SDS011;11493;43.344;26.226;2023-08-31T13:40:09;6.00;;;3.00;;
22652;SDS011;11493;43.344;26.226;2023-08-31T13:42:36;5.15;;;2.75;;
22652;SDS011;11493;43.344;26.226;2023-08-31T13:45:15;5.07;;;2.63;;
22652;SDS011;11493;43.344;26.226;2023-08-31T13:47:42;4.18;;;2.55;;
22652;SDS011;11493;43.344;26.226;2023-08-31T13:50:13;3.30;;;3.00;;
22652;SDS011;11493;43.344;26.226;2023-08-31T13:52:40;7.45;;;3.00;;
22652;SDS011;11493;43.344;26.226;2023-08-31T13:55:08;6.05;;;2.83;;
22652;SDS011;11493;43.344;26.226;2023-08-31T13:57:35;3.72;;;2.67;;
22652;SDS011;11493;43.344;26.226;2023-08-31T14:00:02;4.80;;;2.83;;
22652;SDS011;11493;43.344;26.226;2023-08-31T14:02:35;6.07;;;2.33;;
22652;SDS011;11493;43.344;26.226;2023-08-31T14:07:36;10.35;;;2.75;;
22652;SDS011;11493;43.344;26.226;2023-08-31T14:10:04;4.95;;;2.63;;
22652;SDS011;11493;43.344;26.226;2023-08-31T14:12:32;3.97;;;2.83;;
22652;SDS011;11493;43.344;26.226;2023-08-31T14:15:00;4.25;;;3.00;;
22652;SDS011;11493;43.344;26.226;2023-08-31T14:17:31;4.68;;;2.95;;
22652;SDS011;11493;43.344;26.226;2023-08-31T14:19:59;6.00;;;2.60;;
22652;SDS011;11493;43.344;26.226;2023-08-31T14:22:27;3.40;;;2.50;;
22652;SDS011;11493;43.344;26.226;2023-08-31T14:24:55;4.63;;;2.40;;
22652;SDS011;11493;43.344;26.226;2023-08-31T14:27:22;4.95;;;3.10;;
22652;SDS011;11493;43.344;26.226;2023-08-31T14:29:51;4.20;;;2.75;;
22652;SDS011;11493;43.344;26.226;2023-08-31T14:32:18;6.65;;;2.50;;
22652;SDS011;11493;43.344;26.226;2023-08-31T14:34:45;5.40;;;2.50;;
22652;SDS011;11493;43.344;26.226;2023-08-31T14:37:12;6.18;;;3.08;;
22652;SDS011;11493;43.344;26.226;2023-08-31T14:39:40;6.28;;;2.20;;
22652;SDS011;11493;43.344;26.226;2023-08-31T14:42:07;6.45;;;3.95;;
22652;SDS011;11493;43.344;26.226;2023-08-31T14:44:34;4.72;;;2.35;;
22652;SDS011;11493;43.344;26.226;2023-08-31T14:47:01;5.20;;;3.30;;
22652;SDS011;11493;43.344;26.226;2023-08-31T14:49:29;4.43;;;2.45;;
22652;SDS011;11493;43.344;26.226;2023-08-31T14:51:56;4.78;;;4.22;;
22652;SDS011;11493;43.344;26.226;2023-08-31T14:54:23;4.53;;;3.00;;
22652;SDS011;11493;43.344;26.226;2023-08-31T14:56:51;7.88;;;2.95;;
22652;SDS011;11493;43.344;26.226;2023-08-31T14:59:18;4.53;;;2.45;;
22652;SDS011;11493;43.344;26.226;2023-08-31T15:01:45;4.22;;;2.40;;
22652;SDS011;11493;43.344;26.226;2023-08-31T15:04:12;5.82;;;2.58;;